Tropical Cyclones
[Index]
Main Index Home Page Stock Weather Photos Extreme Storms Discussion Storm News and Storm Chasing Reports Tropical Cyclones / Hurricanes / Typhoons Weather Data and Links Wild Fires / Bushfires Weather Observation Techniques Weather Picture Catalogue Tornado Pictures and Reports Stock Video Footage and DVDs for sale
Season 1963-1964 Tropical Cyclone EVA Track Map
Season 1963-1964 Summaries: [BoM-AU] [JTWC-AU] [JTWC-SIO] [JTWC-SPAC] [JTWC-SH]
<<- Previous TC | BoM 1963-1964 Season | Next TC ->>

click for intensity scale information  Lat/long Grid: Show Hide

 Date Labels: Show Hide

Bureau of Meteorology Tropical Cyclone Data

Name: EVA
Number: 384 / 196364_06

25 Feb 1964 01:00 UTC to 02 Mar 1964 01:00 UTC

    date/time    lat    long    hPa   cat  kts
1964-02-25 01    5.0   100.0   1005                     
1964-02-25 04    5.2    98.2   1005                     
1964-02-25 07    5.5    97.6   1005                     
1964-02-25 10    5.7    96.3   1005                     
1964-02-25 16    6.2    95.6   1005                     
1964-02-25 19    6.5    95.0   1005                     
1964-02-25 22    6.8    94.6   1005                     
1964-02-26 01    7.0    94.0   1005                     
1964-02-26 04    7.7    93.2   1005                     
1964-02-26 07    8.5    92.5   1004                     
1964-02-26 10    9.2    91.7   1004                     
1964-02-26 16   10.7    90.2   1003                     
1964-02-26 19   11.5    89.5   1002                     
1964-02-26 22   12.2    88.8   1001                     
1964-02-27 01   13.0    88.0   1000                     
1964-02-27 04   13.7    88.5    999                     
1964-02-27 07   14.5    89.0    998                     
1964-02-27 10   15.2    89.5    996                     
1964-02-27 16   16.7    90.5    995    1                
1964-02-27 19   17.5    91.0    994    1                
1964-02-27 22   18.2    91.5    992    1                
1964-02-28 01   19.0    92.0    990    1                
1964-02-28 04   19.7    92.5    991    1                
1964-02-28 07   20.4    93.0    993    1                
1964-02-28 10   21.0    93.5    994    1                
1964-02-28 16   22.2    94.5    997                     
1964-02-28 19   22.8    95.0    998                     
1964-02-28 22   23.4    95.5    999                     
1964-02-29 01   24.0    96.0   1000                     
1964-02-29 04   24.7    96.1   1000                     
1964-02-29 07   25.5    96.3   1000                     
1964-02-29 10   26.2    96.4   1000                     
1964-02-29 16   27.7    96.7   1000                     
1964-02-29 19   28.5    96.8   1000                     
1964-02-29 22   29.2    96.9   1000                     
1964-03-01 01   30.0    97.0   1000                     
1964-03-01 04   30.7    98.3   1000                     
1964-03-01 07   31.4    99.5   1000                     
1964-03-01 16   33.2   103.3   1000                     
1964-03-01 19   33.8   104.5   1000                     
1964-03-01 22   34.4   105.8   1000                     
1964-03-02 01   35.0   107.0   1000                     
Winds are 10-min average.

Tropical cyclone tracks developed by Michael Bath using data from the Bureau of Meteorology and Google Maps.


[Australian Severe Weather index] [Copyright Notice] [Email Contacts] [Search This Site] [Privacy Policy]
Document: tropical_cyclone_eva.htm Updated: 30 May 2013